createdAt,value
2017-08-03T00:01:59.513Z,4.13
2017-08-03T00:04:27.034Z,5.00
2017-08-03T00:06:54.573Z,4.03
2017-08-03T00:09:22.124Z,4.00
2017-08-03T00:11:49.622Z,4.30
2017-08-03T00:14:17.127Z,4.23
2017-08-03T00:16:44.683Z,4.60
2017-08-03T00:19:12.187Z,4.50
2017-08-03T00:21:39.676Z,4.03
2017-08-03T00:24:07.277Z,4.43
2017-08-03T00:26:34.777Z,4.80
2017-08-03T00:29:02.285Z,5.70
2017-08-03T00:31:29.901Z,4.10
2017-08-03T00:33:57.409Z,4.10
2017-08-03T00:36:24.924Z,4.20
2017-08-03T00:38:52.485Z,4.37
2017-08-03T00:41:19.997Z,5.53
2017-08-03T00:43:47.496Z,4.87
2017-08-03T00:46:15.090Z,4.40
2017-08-03T00:48:42.666Z,4.77
2017-08-03T00:51:10.425Z,5.00
2017-08-03T00:53:38.054Z,4.93
2017-08-03T00:56:05.554Z,4.07
2017-08-03T00:58:33.054Z,4.60
2017-08-03T01:01:00.589Z,4.10
2017-08-03T01:03:28.145Z,4.53
2017-08-03T01:05:55.677Z,4.50
2017-08-03T01:08:23.175Z,4.83
2017-08-03T01:10:50.731Z,4.40
2017-08-03T01:13:18.228Z,4.53
2017-08-03T01:15:45.726Z,4.97
2017-08-03T01:18:13.298Z,5.50
2017-08-03T01:20:40.800Z,4.70
2017-08-03T01:23:08.433Z,4.73
2017-08-03T01:25:35.937Z,4.27
2017-08-03T01:28:03.494Z,4.43
2017-08-03T01:30:30.998Z,4.50
2017-08-03T01:32:58.537Z,4.27
2017-08-03T01:35:26.069Z,5.10
2017-08-03T01:37:53.614Z,3.93
2017-08-03T01:40:21.124Z,4.03
2017-08-03T01:42:48.677Z,4.50
2017-08-03T01:45:16.183Z,4.00
2017-08-03T01:47:43.738Z,3.80
2017-08-03T01:50:11.277Z,3.53
2017-08-03T01:52:38.833Z,4.30
2017-08-03T01:55:06.336Z,3.63
2017-08-03T01:57:33.842Z,4.10
2017-08-03T02:00:01.373Z,3.70
2017-08-03T02:02:28.917Z,4.40
2017-08-03T02:04:56.419Z,4.30
2017-08-03T02:07:23.956Z,4.60
2017-08-03T02:09:51.498Z,3.37
2017-08-03T02:12:19.068Z,4.17
2017-08-03T02:14:46.569Z,4.13
2017-08-03T02:17:14.077Z,4.00
2017-08-03T02:19:41.632Z,3.83
2017-08-03T02:22:09.129Z,3.63
2017-08-03T02:24:36.629Z,3.87
2017-08-03T02:27:04.183Z,3.30
2017-08-03T02:29:31.685Z,4.10
2017-08-03T02:31:59.182Z,3.30
2017-08-03T02:34:26.721Z,4.30
2017-08-03T02:36:54.273Z,3.40
2017-08-03T02:39:21.787Z,3.93
2017-08-03T02:41:49.285Z,3.40
2017-08-03T02:44:16.822Z,3.90
2017-08-03T02:46:44.369Z,3.20
2017-08-03T02:49:11.881Z,4.30
2017-08-03T02:51:39.413Z,3.40
2017-08-03T02:54:06.978Z,3.90
2017-08-03T02:56:34.521Z,3.73
2017-08-03T02:59:02.030Z,3.90
2017-08-03T03:01:29.578Z,4.20
2017-08-03T03:03:57.073Z,4.17
2017-08-03T03:06:24.574Z,3.97
2017-08-03T03:08:52.118Z,3.70
2017-08-03T03:11:19.622Z,3.97
2017-08-03T03:13:47.178Z,3.90
2017-08-03T03:16:14.720Z,4.17
2017-08-03T03:18:42.229Z,4.07
2017-08-03T03:21:09.833Z,3.90
2017-08-03T03:23:37.326Z,4.10
2017-08-03T03:26:04.826Z,4.40
2017-08-03T03:28:32.401Z,3.30
2017-08-03T03:30:59.926Z,4.00
2017-08-03T03:33:27.438Z,3.60
2017-08-03T03:35:54.979Z,4.00
2017-08-03T03:38:22.539Z,3.83
2017-08-03T03:40:50.059Z,4.67
2017-08-03T03:43:17.615Z,3.70
2017-08-03T03:45:45.171Z,4.83
2017-08-03T03:48:12.709Z,4.07
2017-08-03T03:50:40.422Z,11.37
2017-08-03T03:53:08.078Z,18.43
2017-08-03T03:55:35.706Z,12.10
2017-08-03T03:58:03.217Z,10.70
2017-08-03T04:00:30.798Z,8.10
2017-08-03T04:02:58.317Z,8.90
2017-08-03T04:05:25.854Z,8.43
2017-08-03T04:07:53.389Z,8.30
2017-08-03T04:10:20.936Z,8.30
2017-08-03T04:12:48.445Z,19.50
2017-08-03T04:15:15.948Z,11.90
2017-08-03T04:17:43.565Z,8.27
2017-08-03T04:20:11.084Z,9.90
2017-08-03T04:22:38.709Z,10.63
2017-08-03T04:25:06.239Z,9.07
2017-08-03T04:27:33.852Z,10.30
2017-08-03T04:30:01.369Z,9.57
2017-08-03T04:32:28.895Z,7.60
2017-08-03T04:34:56.453Z,7.63
2017-08-03T04:37:23.969Z,7.33
2017-08-03T04:39:51.513Z,6.80
2017-08-03T04:42:19.018Z,7.03
2017-08-03T04:44:46.580Z,6.23
2017-08-03T04:47:14.177Z,6.57
2017-08-03T04:49:41.770Z,6.37
2017-08-03T04:52:09.422Z,5.87
2017-08-03T04:54:36.977Z,6.13
2017-08-03T04:57:04.536Z,5.67
2017-08-03T04:59:32.117Z,6.77
2017-08-03T05:01:59.629Z,5.40
2017-08-03T05:04:27.143Z,5.30
2017-08-03T05:06:54.701Z,4.90
2017-08-03T05:09:22.223Z,5.27
2017-08-03T05:11:49.814Z,4.90
2017-08-03T05:14:17.373Z,5.20
2017-08-03T05:16:44.893Z,5.53
2017-08-03T05:19:12.525Z,5.20
2017-08-03T05:21:40.121Z,5.27
2017-08-03T05:24:07.668Z,4.93
2017-08-03T05:26:35.313Z,6.20
2017-08-03T05:29:02.859Z,5.23
2017-08-03T05:31:30.435Z,4.90
2017-08-03T05:33:58.020Z,5.60
2017-08-03T05:36:25.667Z,5.80
2017-08-03T05:38:53.213Z,5.03
2017-08-03T05:41:20.786Z,5.10
2017-08-03T05:43:48.986Z,5.20
2017-08-03T05:46:16.648Z,5.50
2017-08-03T05:48:44.313Z,5.20
2017-08-03T05:51:12.074Z,5.07
2017-08-03T05:53:39.730Z,4.83
2017-08-03T05:56:07.848Z,5.50
2017-08-03T05:58:35.436Z,4.43
2017-08-03T06:01:03.170Z,5.07
2017-08-03T06:03:31.146Z,4.50
2017-08-03T06:05:59.708Z,5.47
2017-08-03T06:08:27.827Z,4.93
2017-08-03T06:10:55.397Z,4.47
2017-08-03T06:13:22.986Z,5.00
2017-08-03T06:15:50.661Z,5.30
2017-08-03T06:18:18.967Z,5.27
2017-08-03T06:20:47.070Z,4.60
2017-08-03T06:23:15.772Z,5.40
2017-08-03T06:25:55.433Z,5.27
2017-08-03T06:29:24.855Z,4.20
2017-08-03T06:32:01.263Z,4.57
2017-08-03T06:34:30.304Z,5.50
2017-08-03T06:36:58.490Z,4.10
2017-08-03T06:39:29.150Z,4.20
2017-08-03T06:41:57.649Z,4.73
2017-08-03T06:47:07.906Z,4.57
2017-08-03T06:49:38.776Z,4.17
2017-08-03T06:52:09.736Z,5.23
2017-08-03T06:54:41.657Z,6.40
2017-08-03T06:57:16.227Z,5.00
2017-08-03T07:15:14.419Z,4.77
2017-08-03T07:17:45.493Z,4.77
2017-08-03T07:26:08.743Z,4.63
2017-08-03T07:28:37.437Z,4.33
2017-08-03T07:31:34.910Z,5.27
2017-08-03T08:17:07.393Z,6.50
2017-08-03T08:19:44.783Z,5.70
2017-08-03T09:01:29.187Z,7.00
2017-08-03T09:03:56.822Z,7.60
2017-08-03T09:06:24.600Z,6.80
2017-08-03T09:08:52.279Z,7.40
2017-08-03T09:11:20.685Z,7.67
2017-08-03T09:13:57.889Z,6.60
2017-08-03T09:16:36.387Z,6.43
2017-08-03T09:19:11.908Z,6.30
2017-08-03T09:21:41.428Z,7.03
2017-08-03T09:24:11.721Z,6.30
2017-08-03T09:26:41.042Z,6.47
2017-08-03T09:42:10.281Z,7.10
2017-08-03T09:44:38.261Z,6.07
2017-08-03T09:47:05.939Z,6.30
2017-08-03T10:02:32.838Z,5.37
2017-08-03T10:05:00.431Z,6.20
2017-08-03T10:07:34.282Z,6.07
2017-08-03T10:10:02.572Z,5.77
2017-08-03T10:12:31.769Z,5.40
2017-08-03T10:14:59.742Z,5.00
2017-08-03T10:20:18.576Z,4.97
2017-08-03T10:28:28.237Z,5.90
2017-08-03T10:30:58.962Z,4.97
2017-08-03T10:33:27.657Z,4.60
2017-08-03T10:38:40.047Z,4.97
2017-08-03T10:41:13.109Z,5.07
2017-08-03T10:43:41.104Z,4.67
2017-08-03T10:48:55.801Z,5.30
2017-08-03T10:51:28.490Z,3.57
2017-08-03T10:54:20.055Z,4.30
2017-08-03T10:56:48.927Z,3.93
2017-08-03T10:59:17.130Z,3.77
2017-08-03T11:01:53.495Z,4.70
2017-08-03T11:15:04.121Z,3.20
2017-08-03T11:32:46.735Z,3.23
2017-08-03T11:35:16.390Z,3.50
2017-08-03T11:40:23.842Z,2.40
2017-08-03T11:42:58.581Z,3.30
2017-08-03T11:45:27.506Z,2.20
2017-08-03T11:47:59.265Z,2.57
2017-08-03T11:50:28.982Z,3.30
2017-08-03T11:52:58.299Z,2.80
2017-08-03T11:55:28.276Z,3.27
2017-08-03T11:57:59.584Z,2.33
2017-08-03T12:00:29.723Z,2.57
2017-08-03T12:03:00.348Z,2.50
2017-08-03T12:05:29.100Z,2.87
2017-08-03T12:08:07.836Z,3.03
2017-08-03T12:10:35.731Z,2.20
2017-08-03T12:13:04.619Z,3.27
2017-08-03T12:15:34.473Z,2.47
2017-08-03T12:18:03.167Z,2.60
2017-08-03T12:20:31.968Z,2.13
2017-08-03T12:23:00.170Z,1.80
2017-08-03T12:25:28.671Z,2.17
2017-08-03T12:39:26.271Z,2.80
2017-08-03T12:42:03.912Z,2.20
2017-08-03T12:47:27.277Z,2.10
2017-08-03T12:50:23.669Z,2.80
2017-08-03T12:53:01.578Z,2.37
2017-08-03T12:55:30.290Z,2.30
2017-08-03T13:00:57.729Z,1.77
2017-08-03T13:03:40.582Z,2.03
2017-08-03T13:06:17.550Z,2.30
2017-08-03T13:09:02.165Z,2.33
2017-08-03T13:11:34.932Z,2.00
2017-08-03T13:24:23.791Z,2.10
2017-08-03T13:27:00.682Z,2.73
2017-08-03T13:29:29.441Z,2.70
2017-08-03T13:35:01.327Z,2.00
2017-08-03T13:38:04.296Z,2.53
2017-08-03T13:43:27.281Z,3.20
2017-08-03T13:45:56.200Z,2.33
2017-08-03T13:48:26.404Z,2.10
2017-08-03T13:57:27.063Z,2.30
2017-08-03T13:59:59.873Z,2.20
2017-08-03T14:02:33.374Z,1.87
2017-08-03T14:05:12.900Z,2.40
2017-08-03T14:07:45.575Z,2.63
2017-08-03T14:10:26.862Z,2.73
2017-08-03T14:12:56.490Z,2.60
2017-08-03T14:15:25.276Z,2.20
2017-08-03T14:17:59.587Z,2.00
2017-08-03T14:20:35.257Z,2.73
2017-08-03T14:23:09.147Z,2.90
2017-08-03T14:25:38.314Z,2.60
2017-08-03T14:28:05.999Z,2.73
2017-08-03T14:30:33.884Z,2.70
2017-08-03T14:33:01.708Z,2.30
2017-08-03T14:35:29.500Z,3.03
2017-08-03T14:37:57.775Z,2.27
2017-08-03T14:40:25.832Z,2.37
2017-08-03T14:42:53.915Z,2.57
2017-08-03T14:45:22.465Z,1.80
2017-08-03T14:47:51.084Z,2.40
2017-08-03T14:50:19.248Z,2.80
2017-08-03T14:52:47.653Z,2.87
2017-08-03T14:55:15.415Z,2.17
2017-08-03T14:57:43.868Z,2.13
2017-08-03T15:00:12.617Z,2.27
2017-08-03T15:02:42.565Z,2.53
2017-08-03T15:05:11.908Z,2.97
2017-08-03T15:07:40.400Z,1.83
2017-08-03T15:10:08.771Z,2.27
2017-08-03T15:12:37.090Z,2.63
2017-08-03T15:15:04.883Z,2.70
2017-08-03T15:17:32.514Z,2.27
2017-08-03T15:20:00.077Z,1.63
2017-08-03T15:22:27.605Z,2.93
2017-08-03T15:24:55.212Z,2.00
2017-08-03T15:27:22.742Z,2.43
2017-08-03T15:29:50.289Z,2.50
2017-08-03T15:32:17.931Z,2.40
2017-08-03T15:34:45.563Z,2.50
2017-08-03T15:37:13.264Z,2.20
2017-08-03T15:39:40.901Z,2.73
2017-08-03T15:42:08.465Z,2.40
2017-08-03T15:44:36.006Z,2.47
2017-08-03T15:47:03.653Z,2.40
2017-08-03T15:49:31.461Z,2.57
2017-08-03T15:51:59.072Z,3.10
2017-08-03T15:54:26.666Z,2.17
2017-08-03T15:56:54.246Z,2.40
2017-08-03T15:59:21.883Z,2.27
2017-08-03T16:01:49.447Z,3.03
2017-08-03T16:04:17.021Z,2.73
2017-08-03T16:06:44.590Z,2.40
2017-08-03T16:09:12.163Z,2.57
2017-08-03T16:11:39.745Z,2.40
2017-08-03T16:14:07.513Z,2.77
2017-08-03T16:16:35.037Z,2.80
2017-08-03T16:19:02.686Z,2.50
2017-08-03T16:21:30.207Z,2.57
2017-08-03T16:23:57.795Z,2.40
2017-08-03T16:26:25.374Z,2.47
2017-08-03T16:28:52.926Z,2.70
2017-08-03T16:31:20.429Z,2.30
2017-08-03T16:33:48.018Z,2.90
2017-08-03T16:36:15.579Z,2.60
2017-08-03T16:38:43.098Z,2.60
2017-08-03T16:41:10.693Z,2.40
2017-08-03T16:43:38.251Z,2.73
2017-08-03T16:46:05.755Z,3.00
2017-08-03T16:48:33.261Z,2.67
2017-08-03T16:51:00.871Z,2.73
2017-08-03T16:53:28.377Z,2.90
2017-08-03T16:55:55.872Z,3.50
2017-08-03T16:58:23.429Z,2.70
2017-08-03T17:00:51.845Z,3.07
2017-08-03T17:03:20.237Z,3.03
2017-08-03T17:32:09.505Z,3.17
2017-08-03T17:34:38.128Z,3.30
2017-08-03T17:37:06.955Z,2.93
2017-08-03T17:39:36.117Z,2.70
2017-08-03T17:42:04.937Z,3.30
2017-08-03T17:51:25.255Z,3.00
2017-08-03T17:53:53.972Z,3.00
2017-08-03T17:56:22.826Z,3.10
2017-08-03T18:10:33.662Z,3.93
2017-08-03T18:13:02.552Z,3.30
2017-08-03T18:15:31.331Z,4.30
2017-08-03T18:17:59.853Z,4.23
2017-08-03T18:30:36.550Z,4.43
2017-08-03T18:33:04.903Z,3.10
2017-08-03T18:35:33.669Z,4.13
2017-08-03T18:38:02.346Z,4.40
2017-08-03T18:40:31.238Z,3.70
2017-08-03T18:46:03.361Z,4.70
2017-08-03T18:48:32.084Z,4.50
2017-08-03T18:51:00.759Z,3.93
2017-08-03T18:53:29.224Z,4.40
2017-08-03T18:55:58.020Z,3.93
2017-08-03T18:58:26.761Z,3.40
2017-08-03T19:00:55.414Z,3.83
2017-08-03T19:03:24.130Z,3.90
2017-08-03T19:05:52.644Z,4.10
2017-08-03T19:08:21.316Z,3.80
2017-08-03T19:10:49.897Z,4.10
2017-08-03T19:13:18.415Z,3.60
2017-08-03T19:15:47.228Z,4.00
2017-08-03T19:18:15.711Z,4.10
2017-08-03T19:20:44.242Z,3.00
2017-08-03T19:23:13.770Z,3.83
2017-08-03T19:25:42.413Z,4.63
2017-08-03T19:28:11.068Z,4.27
2017-08-03T19:30:39.808Z,3.83
2017-08-03T19:33:08.499Z,3.90
2017-08-03T19:35:37.189Z,3.80
2017-08-03T19:38:05.956Z,3.93
2017-08-03T19:40:34.687Z,4.03
2017-08-03T19:43:03.737Z,2.93
2017-08-03T19:51:13.131Z,3.90
2017-08-03T19:53:41.922Z,3.60
2017-08-03T19:56:10.543Z,4.40
2017-08-03T19:58:39.547Z,4.07
2017-08-03T20:01:08.207Z,3.47
2017-08-03T20:03:37.279Z,3.60
2017-08-03T20:06:05.369Z,3.73
2017-08-03T20:08:39.597Z,4.20
2017-08-03T20:11:08.293Z,3.97
2017-08-03T20:13:36.185Z,4.13
2017-08-03T20:16:04.147Z,4.17
2017-08-03T20:18:56.521Z,3.70
2017-08-03T20:21:25.790Z,4.47
2017-08-03T20:23:53.798Z,4.10
2017-08-03T20:26:21.817Z,3.90
2017-08-03T20:28:49.880Z,3.97
2017-08-03T20:31:17.860Z,3.83
2017-08-03T20:33:45.710Z,4.87
2017-08-03T20:47:36.394Z,3.40
2017-08-03T20:56:01.188Z,4.00
2017-08-03T20:58:29.358Z,4.93
2017-08-03T21:00:57.352Z,3.87
2017-08-03T21:03:25.806Z,3.23
2017-08-03T21:05:54.210Z,3.97
2017-08-03T21:08:22.386Z,3.97
2017-08-03T21:10:51.102Z,3.97
2017-08-03T21:13:19.628Z,4.73
2017-08-03T21:15:47.322Z,4.37
2017-08-03T21:18:15.037Z,3.70
2017-08-03T21:20:42.937Z,4.20
2017-08-03T21:23:11.318Z,3.70
2017-08-03T21:25:39.860Z,3.70
2017-08-03T21:28:08.360Z,4.57
2017-08-03T21:30:36.826Z,4.00
2017-08-03T21:33:06.685Z,4.60
2017-08-03T21:35:35.108Z,3.83
2017-08-03T21:38:03.339Z,4.63
2017-08-03T21:43:14.369Z,4.23
2017-08-03T21:51:56.062Z,4.57
2017-08-03T21:54:37.126Z,4.60
2017-08-03T21:57:06.891Z,3.83
2017-08-03T21:59:36.087Z,3.80
2017-08-03T22:02:06.364Z,3.70
2017-08-03T22:04:35.329Z,4.13
2017-08-03T22:07:02.950Z,3.60
2017-08-03T22:09:30.457Z,4.20
2017-08-03T22:11:57.999Z,4.03
2017-08-03T22:14:25.539Z,3.40
2017-08-03T22:16:53.073Z,3.37
2017-08-03T22:19:20.642Z,3.50
2017-08-03T22:21:48.150Z,4.00
2017-08-03T22:24:15.689Z,4.37
2017-08-03T22:26:43.249Z,4.23
2017-08-03T22:29:10.762Z,3.97
2017-08-03T22:31:38.309Z,4.10
2017-08-03T22:34:05.851Z,4.20
2017-08-03T22:36:33.394Z,3.50
2017-08-03T22:39:00.893Z,4.40
2017-08-03T22:41:28.425Z,4.67
2017-08-03T22:43:55.983Z,4.00
2017-08-03T22:46:23.497Z,4.10
2017-08-03T22:48:50.997Z,3.67
2017-08-03T22:51:18.578Z,3.97
2017-08-03T22:53:46.081Z,4.73
2017-08-03T22:56:13.589Z,4.00
2017-08-03T22:58:41.141Z,3.40
2017-08-03T23:01:08.662Z,3.50
2017-08-03T23:03:36.481Z,3.63
2017-08-03T23:06:04.027Z,3.77
2017-08-03T23:08:31.579Z,3.73
2017-08-03T23:10:59.133Z,3.57
2017-08-03T23:13:26.646Z,3.90
2017-08-03T23:15:54.169Z,3.47
2017-08-03T23:18:21.726Z,4.23
2017-08-03T23:20:49.269Z,3.50
2017-08-03T23:23:16.791Z,4.00
2017-08-03T23:25:44.353Z,4.47
2017-08-03T23:28:11.988Z,3.87
2017-08-03T23:30:39.569Z,4.30
2017-08-03T23:33:07.143Z,4.40
2017-08-03T23:35:34.736Z,4.03
2017-08-03T23:38:02.276Z,3.40
2017-08-03T23:40:29.785Z,4.20
2017-08-03T23:42:57.417Z,3.87
2017-08-03T23:45:24.939Z,4.30
2017-08-03T23:47:52.521Z,3.87
2017-08-03T23:50:20.064Z,4.23
2017-08-03T23:52:47.624Z,3.87
2017-08-03T23:55:15.166Z,4.23
2017-08-03T23:57:42.781Z,4.17
